Time;durP1;ratioP1;P1;durP2;ratioP2;P2;SDS_P1;SDS_P2;PMS_P1;PMS_P2;Temp;Humidity;BMP_temperature;BMP_pressure;BME280_temperature;BME280_humidity;BME280_pressure;Samples;Min_cycle;Max_cycle;Signal;HPM_P1;HPM_P2
2021/07/17 00:01:51;;;;;;;5.95;3.75;;;;;;;26.50;37.33;98825.78;5031102;28;20032;-74
2021/07/17 00:04:16;;;;;;;6.30;3.28;;;;;;;26.23;37.30;98802.19;5030895;28;20423;-74
2021/07/17 00:06:42;;;;;;;6.97;3.47;;;;;;;26.29;37.34;98816.41;5031052;28;20033;-75
2021/07/17 00:09:07;;;;;;;10.75;3.80;;;;;;;26.39;37.57;98820.88;5033636;28;20028;-75
2021/07/17 00:11:33;;;;;;;7.32;3.53;;;;;;;26.25;37.79;98816.22;5032953;28;20084;-74
2021/07/17 00:13:59;;;;;;;9.02;3.90;;;;;;;26.21;37.66;98812.50;5034148;28;20116;-73
2021/07/17 00:16:27;;;;;;;6.00;3.55;;;;;;;26.23;37.73;98831.94;5034528;28;20506;-74
2021/07/17 00:18:56;;;;;;;8.80;3.50;;;;;;;26.21;37.95;98844.16;5034594;28;20536;-74
2021/07/17 00:21:22;;;;;;;6.43;3.92;;;;;;;26.19;38.31;98832.84;5034111;28;20055;-74
2021/07/17 00:23:49;;;;;;;7.85;3.90;;;;;;;26.19;37.99;98832.84;5034233;28;20421;-74
2021/07/17 00:26:14;;;;;;;10.13;4.10;;;;;;;26.19;37.93;98828.22;5034290;28;20108;-73
2021/07/17 00:28:40;;;;;;;12.00;3.80;;;;;;;26.22;38.18;98829.53;5034165;28;20109;-75
2021/07/17 00:31:05;;;;;;;9.95;3.72;;;;;;;26.15;38.05;98826.41;5034230;28;20021;-74
2021/07/17 00:33:31;;;;;;;6.45;4.18;;;;;;;26.08;38.33;98823.31;5034211;28;20553;-76
2021/07/17 00:35:56;;;;;;;12.05;4.18;;;;;;;25.97;38.71;98828.06;5034222;28;20112;-73
2021/07/17 00:38:22;;;;;;;6.05;3.72;;;;;;;25.97;38.53;98828.06;5033860;28;20109;-75
2021/07/17 00:40:47;;;;;;;6.47;3.70;;;;;;;26.00;38.83;98818.53;5033785;28;20095;-74
2021/07/17 00:43:13;;;;;;;5.53;3.63;;;;;;;26.00;38.74;98821.25;5033726;28;20096;-75
2021/07/17 00:45:38;;;;;;;7.88;3.63;;;;;;;26.02;38.82;98819.88;5033840;28;20037;-75
2021/07/17 00:48:04;;;;;;;8.85;3.50;;;;;;;26.03;38.85;98815.28;5033951;28;20030;-74
2021/07/17 00:50:30;;;;;;;10.55;4.28;;;;;;;25.81;39.07;98794.25;5033832;28;20079;-75
2021/07/17 00:52:55;;;;;;;10.00;5.07;;;;;;;25.96;39.33;98821.84;5033782;28;20057;-75
2021/07/17 00:55:25;;;;;;;8.90;3.92;;;;;;;25.89;39.32;98818.72;5032721;28;20486;-74
2021/07/17 00:57:52;;;;;;;11.23;4.00;;;;;;;25.84;39.48;98818.00;5033557;28;20021;-74
2021/07/17 01:00:18;;;;;;;8.50;3.70;;;;;;;25.88;39.20;98819.81;5033409;28;20021;-74
2021/07/17 01:02:48;;;;;;;10.50;3.90;;;;;;;25.89;39.36;98815.22;5033341;28;20022;-75
2021/07/17 01:05:15;;;;;;;12.38;3.72;;;;;;;25.83;39.58;98816.38;5033386;28;20038;-74
2021/07/17 01:07:40;;;;;;;7.35;4.00;;;;;;;25.81;39.87;98821.28;5033233;28;20048;-74
2021/07/17 01:10:08;;;;;;;8.63;3.90;;;;;;;25.81;39.82;98818.59;5033264;28;20474;-74
2021/07/17 01:12:34;;;;;;;10.75;3.80;;;;;;;25.82;40.14;98806.66;5033178;28;20026;-74
2021/07/17 01:14:59;;;;;;;8.43;3.95;;;;;;;25.78;40.03;98816.47;5033199;28;20033;-75
2021/07/17 01:17:25;;;;;;;11.30;4.20;;;;;;;25.73;40.32;98789.50;5033152;28;20053;-74
2021/07/17 01:19:51;;;;;;;9.15;4.30;;;;;;;25.74;40.32;98786.50;5032461;28;20030;-74
2021/07/17 01:22:18;;;;;;;7.88;4.20;;;;;;;25.78;40.52;98795.63;5033219;28;20044;-74
2021/07/17 01:24:44;;;;;;;10.52;4.80;;;;;;;25.83;40.67;98798.25;5033188;28;20022;-74
2021/07/17 01:27:15;;;;;;;9.68;4.13;;;;;;;25.73;40.50;98776.78;5033108;28;20104;-74
2021/07/17 01:29:41;;;;;;;;;;;;;;;25.59;40.71;98792.13;5033276;28;20021;-73
2021/07/17 01:32:07;;;;;;;7.93;4.20;;;;;;;25.69;40.42;98794.72;5032736;28;19905;-73
2021/07/17 01:34:33;;;;;;;9.82;4.30;;;;;;;25.69;40.37;98800.13;5032821;28;20452;-74
2021/07/17 01:36:58;;;;;;;11.07;4.38;;;;;;;25.25;40.81;98739.13;5033067;28;20025;-73
2021/07/17 01:39:23;;;;;;;9.07;4.47;;;;;;;25.56;41.11;98798.94;5032769;28;20511;-72
2021/07/17 01:41:49;;;;;;;6.00;4.30;;;;;;;25.53;40.90;98791.41;5032827;28;20037;-74
2021/07/17 01:44:14;;;;;;;8.52;4.05;;;;;;;25.44;41.23;98786.97;5032647;28;20477;-74
2021/07/17 01:46:42;;;;;;;9.07;4.35;;;;;;;25.40;41.55;98802.97;5032538;28;20470;-74
2021/07/17 01:49:07;;;;;;;6.25;4.25;;;;;;;25.34;41.76;98825.75;5032520;28;20025;-74
2021/07/17 01:51:33;;;;;;;9.63;4.20;;;;;;;25.37;42.02;98810.84;5032540;28;20425;-75
2021/07/17 01:54:00;;;;;;;9.07;4.65;;;;;;;25.23;41.97;98789.13;5032679;28;20043;-74
2021/07/17 01:56:26;;;;;;;8.75;4.75;;;;;;;25.32;41.90;98817.94;5032387;28;20023;-74
2021/07/17 01:58:54;;;;;;;8.05;4.20;;;;;;;25.29;42.38;98810.41;5032524;28;20469;-73
2021/07/17 02:01:20;;;;;;;5.43;4.30;;;;;;;25.25;42.41;98809.38;5032217;28;20044;-74
2021/07/17 02:03:47;;;;;;;5.80;4.18;;;;;;;25.24;42.61;98804.25;5032239;28;20056;-74
2021/07/17 02:06:14;;;;;;;9.75;5.05;;;;;;;25.21;42.81;98811.03;5032490;28;20475;-74
2021/07/17 02:08:41;;;;;;;6.97;4.35;;;;;;;25.13;43.28;98798.19;5032384;28;20025;-74
2021/07/17 02:11:08;;;;;;;9.60;4.55;;;;;;;25.24;42.94;98805.06;5032361;28;20116;-74
2021/07/17 02:13:33;;;;;;;8.27;4.88;;;;;;;25.27;42.94;98809.91;5032141;28;20029;-74
2021/07/17 02:15:59;;;;;;;7.50;4.82;;;;;;;25.22;42.97;98814.56;5032137;28;20468;-73
2021/07/17 02:18:27;;;;;;;8.75;4.60;;;;;;;25.15;43.56;98811.41;5032064;28;20021;-74
2021/07/17 02:20:53;;;;;;;13.18;5.53;;;;;;;25.13;43.44;98814.41;5031889;28;20028;-74
2021/07/17 02:23:19;;;;;;;10.07;4.65;;;;;;;25.13;43.83;98830.59;5031961;28;20486;-73
2021/07/17 02:25:45;;;;;;;10.77;5.20;;;;;;;23.99;44.09;98633.59;5031825;28;20026;-74
2021/07/17 02:28:11;;;;;;;10.55;4.65;;;;;;;25.09;44.24;98817.97;5031842;28;20441;-74
2021/07/17 02:30:36;;;;;;;8.90;5.22;;;;;;;24.52;44.33;98725.22;5030549;28;20018;-73
2021/07/17 02:33:02;;;;;;;9.50;4.85;;;;;;;24.61;44.49;98728.94;5031804;28;20026;-74
2021/07/17 02:35:28;;;;;;;11.68;4.63;;;;;;;25.02;44.73;98807.53;5031896;28;20479;-73
2021/07/17 02:37:53;;;;;;;9.18;5.15;;;;;;;25.06;45.17;98822.06;5031658;28;20032;-73
2021/07/17 02:40:19;;;;;;;9.80;4.80;;;;;;;24.50;45.51;98730.91;5031787;28;20490;-74
2021/07/17 02:42:44;;;;;;;11.38;4.70;;;;;;;25.00;45.77;98821.31;5031812;28;20046;-74
2021/07/17 02:45:12;;;;;;;8.23;4.75;;;;;;;25.00;46.10;98815.13;5031857;28;20032;-73
2021/07/17 02:47:37;;;;;;;9.40;5.00;;;;;;;24.93;46.22;98822.75;5031574;28;20029;-73
2021/07/17 02:50:05;;;;;;;13.38;5.60;;;;;;;24.95;46.10;98823.25;5031738;28;20010;-73
2021/07/17 02:52:30;;;;;;;8.00;4.68;;;;;;;24.92;46.17;98810.34;5031542;28;20029;-73
2021/07/17 02:54:56;;;;;;;7.55;4.65;;;;;;;24.93;46.64;98817.34;5031900;28;20028;-74
2021/07/17 02:57:21;;;;;;;7.40;4.97;;;;;;;24.90;46.87;98817.91;5030221;28;20468;-72
2021/07/17 02:59:47;;;;;;;9.70;5.28;;;;;;;24.83;47.19;98818.28;5031437;28;20029;-75
2021/07/17 03:02:12;;;;;;;9.52;4.80;;;;;;;24.78;47.17;98822.94;5031447;28;20060;-74
2021/07/17 03:04:37;;;;;;;6.75;4.97;;;;;;;24.56;47.41;98783.78;5031487;28;20022;-74
2021/07/17 03:07:03;;;;;;;11.88;5.25;;;;;;;24.75;47.76;98813.50;5031263;28;20025;-74
2021/07/17 03:09:29;;;;;;;8.30;5.03;;;;;;;24.32;47.64;98742.47;5031452;28;20449;-74
2021/07/17 03:11:54;;;;;;;9.45;5.35;;;;;;;24.87;47.24;98813.09;5031509;28;20025;-74
2021/07/17 03:14:19;;;;;;;7.65;5.35;;;;;;;24.00;47.56;98678.34;5031251;28;20049;-74
2021/07/17 03:16:45;;;;;;;8.25;5.78;;;;;;;24.82;47.80;98819.38;5031251;28;20176;-74
2021/07/17 03:19:10;;;;;;;11.90;6.40;;;;;;;24.76;48.09;98817.00;5029944;28;20017;-74
2021/07/17 03:21:36;;;;;;;10.32;5.65;;;;;;;24.74;48.36;98824.59;5031061;28;20033;-74
2021/07/17 03:24:01;;;;;;;9.70;5.78;;;;;;;24.69;48.44;98825.47;5031123;28;20025;-81
2021/07/17 03:26:27;;;;;;;9.65;5.63;;;;;;;24.71;48.62;98831.38;5031380;28;20032;-80
2021/07/17 03:28:52;;;;;;;12.18;5.30;;;;;;;24.49;48.36;98785.97;5031601;28;20486;-81
2021/07/17 03:31:25;;;;;;;12.70;5.43;;;;;;;24.43;48.50;98776.34;5031059;28;20096;-79
2021/07/17 03:33:50;;;;;;;12.25;6.10;;;;;;;24.72;48.47;98811.38;5031104;28;20521;-80
2021/07/17 03:36:16;;;;;;;9.02;5.65;;;;;;;24.70;48.70;98805.47;5031132;28;20026;-80
2021/07/17 03:38:41;;;;;;;9.30;5.68;;;;;;;24.66;49.01;98816.03;5031045;28;20033;-80
2021/07/17 03:41:07;;;;;;;10.43;6.30;;;;;;;24.66;49.04;98805.25;5031086;28;20072;-81
2021/07/17 03:43:32;;;;;;;10.63;5.80;;;;;;;24.59;49.11;98791.28;5033423;28;20030;-80
2021/07/17 03:45:58;;;;;;;11.88;6.78;;;;;;;24.71;49.10;98807.88;5035017;28;20029;-80
2021/07/17 03:48:23;;;;;;;12.35;7.13;;;;;;;24.76;48.74;98801.63;5035089;28;20017;-80
2021/07/17 03:50:48;;;;;;;11.40;7.55;;;;;;;24.77;49.11;98800.53;5034869;28;20478;-80
2021/07/17 03:53:14;;;;;;;9.50;7.05;;;;;;;24.74;49.28;98803.00;5033401;28;20509;-80
2021/07/17 03:55:39;;;;;;;15.40;7.97;;;;;;;24.74;49.09;98803.00;5035011;28;20079;-81
2021/07/17 03:58:05;;;;;;;11.13;7.68;;;;;;;24.43;49.23;98762.03;5034873;28;20021;-79
2021/07/17 04:00:30;;;;;;;12.13;7.25;;;;;;;24.58;49.42;98787.00;5034527;28;20017;-80
2021/07/17 04:02:55;;;;;;;13.10;7.32;;;;;;;24.63;49.72;98803.13;5034576;28;20103;-80
2021/07/17 04:05:21;;;;;;;13.23;7.38;;;;;;;24.43;49.72;98781.72;5033576;28;20029;-80
2021/07/17 04:07:46;;;;;;;12.93;7.45;;;;;;;24.56;49.70;98805.38;5034665;28;20048;-81
2021/07/17 04:10:13;;;;;;;13.77;7.45;;;;;;;24.08;49.87;98726.25;5034782;28;20040;-80
2021/07/17 04:12:39;;;;;;;11.32;6.68;;;;;;;24.48;50.00;98800.56;5034758;28;20597;-80
2021/07/17 04:15:06;;;;;;;11.75;7.00;;;;;;;24.10;50.15;98748.34;5034445;28;20105;-80
2021/07/17 04:17:32;;;;;;;8.30;5.82;;;;;;;24.00;50.23;98741.16;5034603;28;20096;-80
2021/07/17 04:19:57;;;;;;;13.95;6.13;;;;;;;24.40;49.80;98768.81;5034642;28;20109;-80
2021/07/17 04:22:22;;;;;;;9.15;5.85;;;;;;;24.66;49.84;98793.66;5034483;28;20029;-80
2021/07/17 04:24:48;;;;;;;9.90;6.13;;;;;;;24.64;49.80;98793.94;5034352;28;20100;-75
2021/07/17 04:27:14;;;;;;;9.60;5.53;;;;;;;24.70;49.63;98790.09;5033943;28;20067;-74
2021/07/17 04:29:39;;;;;;;9.50;5.63;;;;;;;24.85;49.22;98780.19;5033984;28;20410;-73
2021/07/17 04:32:05;;;;;;;12.55;5.60;;;;;;;24.80;48.96;98786.44;5034238;28;20087;-72
2021/07/17 04:34:31;;;;;;;6.55;5.07;;;;;;;24.83;48.61;98788.56;5034195;28;20099;-73
2021/07/17 04:36:56;;;;;;;9.30;5.10;;;;;;;24.45;48.76;98743.66;5034112;28;20021;-73
2021/07/17 04:39:23;;;;;;;10.13;5.30;;;;;;;24.51;48.72;98756.81;5034047;28;20022;-73
2021/07/17 04:41:48;;;;;;;8.90;4.57;;;;;;;24.74;48.73;98798.41;5033857;28;20537;-72
2021/07/17 04:44:13;;;;;;;6.40;5.00;;;;;;;24.87;48.62;98789.59;5033947;28;20025;-74
2021/07/17 04:46:39;;;;;;;8.80;5.28;;;;;;;25.03;48.00;98791.03;5033812;28;20026;-74
2021/07/17 04:49:04;;;;;;;8.23;5.15;;;;;;;25.02;47.73;98783.22;5033757;28;20478;-74
2021/07/17 04:51:29;;;;;;;9.13;4.65;;;;;;;25.06;47.45;98786.13;5033803;28;20024;-74
2021/07/17 04:53:55;;;;;;;10.45;4.75;;;;;;;25.14;46.95;98775.47;5032899;28;20044;-74
2021/07/17 04:56:20;;;;;;;8.65;4.22;;;;;;;25.27;46.56;98790.19;5032989;28;20460;-74
2021/07/17 04:58:46;;;;;;;7.30;4.55;;;;;;;25.38;46.13;98786.25;5033284;28;20498;-74
2021/07/17 05:01:11;;;;;;;5.55;4.25;;;;;;;25.45;46.10;98788.56;5033578;28;20022;-74
2021/07/17 05:03:37;;;;;;;8.20;3.97;;;;;;;25.15;45.46;98714.97;5033529;28;20026;-74
2021/07/17 05:06:03;;;;;;;8.35;4.15;;;;;;;24.76;45.35;98634.22;5033851;28;20025;-74
2021/07/17 05:08:28;;;;;;;8.10;4.07;;;;;;;25.84;44.65;98777.44;5033569;28;20029;-75
2021/07/17 05:10:54;;;;;;;8.80;4.43;;;;;;;25.83;44.39;98787.44;5033440;28;20493;-74
2021/07/17 05:13:19;;;;;;;7.45;4.05;;;;;;;25.91;44.03;98780.56;5032047;28;20035;-74
2021/07/17 05:15:45;;;;;;;7.45;3.78;;;;;;;26.02;43.48;98775.78;5033257;28;20091;-74
2021/07/17 05:18:13;;;;;;;7.38;3.83;;;;;;;26.12;43.15;98781.03;5031988;28;20028;-74
2021/07/17 05:20:40;;;;;;;5.90;3.45;;;;;;;25.52;42.83;98697.09;5033236;28;20021;-74
2021/07/17 05:23:05;;;;;;;5.10;3.55;;;;;;;26.21;42.55;98774.63;5033432;28;20466;-74
2021/07/17 05:25:31;;;;;;;8.65;3.58;;;;;;;26.26;42.16;98784.53;5033173;28;20025;-74
2021/07/17 05:27:57;;;;;;;8.88;3.67;;;;;;;26.27;42.40;98778.84;5032919;28;20033;-75
2021/07/17 05:30:23;;;;;;;9.45;3.55;;;;;;;26.10;42.35;98745.34;5033156;28;20071;-74
2021/07/17 05:32:48;;;;;;;8.95;4.18;;;;;;;26.38;42.22;98775.97;5032927;28;20030;-74
2021/07/17 05:35:14;;;;;;;12.30;4.38;;;;;;;26.45;41.97;98782.59;5033099;28;20026;-74
2021/07/17 05:37:39;;;;;;;11.50;4.45;;;;;;;26.38;41.94;98763.22;5032977;28;20624;-73
2021/07/17 05:40:06;;;;;;;7.15;3.85;;;;;;;26.57;42.26;98782.06;5032855;28;20021;-74
2021/07/17 05:42:32;;;;;;;5.53;3.42;;;;;;;26.66;41.74;98777.56;5032520;28;20049;-75
2021/07/17 05:44:57;;;;;;;5.45;3.80;;;;;;;26.72;41.67;98773.66;5032693;28;20156;-74
2021/07/17 05:47:23;;;;;;;5.47;3.33;;;;;;;26.68;42.00;98769.13;5031292;28;20417;-74
2021/07/17 05:49:48;;;;;;;7.95;3.85;;;;;;;26.55;41.76;98735.56;5032393;28;20027;-74
2021/07/17 05:52:13;;;;;;;7.32;4.22;;;;;;;26.35;41.71;98698.88;5032764;28;20100;-74
2021/07/17 05:54:39;;;;;;;8.35;3.50;;;;;;;26.86;41.64;98779.06;5032708;28;20020;-73
2021/07/17 05:57:06;;;;;;;7.10;3.47;;;;;;;26.89;41.40;98773.84;5032461;28;20067;-73
2021/07/17 05:59:32;;;;;;;5.00;3.80;;;;;;;26.84;41.10;98757.72;5032509;28;20410;-73
2021/07/17 06:01:57;;;;;;;6.45;3.70;;;;;;;26.97;41.21;98768.81;5032051;28;20517;-73
2021/07/17 06:04:23;;;;;;;11.63;4.82;;;;;;;27.05;41.25;98760.81;5032165;28;20049;-73
2021/07/17 06:06:48;;;;;;;9.18;4.38;;;;;;;27.12;41.13;98774.72;5031985;28;20024;-73
2021/07/17 06:09:14;;;;;;;7.78;3.90;;;;;;;27.16;41.26;98766.78;5032222;28;20387;-75
2021/07/17 06:11:39;;;;;;;6.70;3.97;;;;;;;27.21;41.06;98772.91;5032070;28;20014;-74
2021/07/17 06:14:04;;;;;;;7.03;3.63;;;;;;;27.21;40.92;98769.38;5031995;28;20036;-74
2021/07/17 06:16:30;;;;;;;5.60;3.58;;;;;;;27.25;40.64;98775.78;5032153;28;20021;-73
2021/07/17 06:18:55;;;;;;;8.98;3.53;;;;;;;27.21;40.42;98770.19;5032285;28;20025;-73
2021/07/17 06:21:21;;;;;;;6.57;3.72;;;;;;;27.27;40.26;98764.66;5031842;28;20021;-73
2021/07/17 06:23:46;;;;;;;6.88;3.08;;;;;;;27.33;40.13;98763.41;5031916;28;20025;-81
2021/07/17 06:26:11;;;;;;;7.68;3.33;;;;;;;27.08;40.07;98713.31;5031825;28;20029;-79
2021/07/17 06:28:38;;;;;;;7.15;3.97;;;;;;;27.55;40.15;98768.88;5031977;28;20021;-80
2021/07/17 06:31:03;;;;;;;9.93;3.88;;;;;;;27.50;39.53;98748.13;5032121;28;20557;-80
2021/07/17 06:33:28;;;;;;;4.80;3.60;;;;;;;27.54;38.83;98759.94;5032120;28;20100;-78
2021/07/17 06:35:54;;;;;;;6.18;3.40;;;;;;;27.63;38.57;98757.31;5031765;28;20021;-81
2021/07/17 06:38:20;;;;;;;7.18;3.90;;;;;;;27.36;38.24;98714.00;5031381;28;20543;-81
2021/07/17 06:40:45;;;;;;;10.07;3.38;;;;;;;27.28;38.22;98693.06;5031607;28;20509;-77
2021/07/17 06:43:10;;;;;;;6.07;3.25;;;;;;;27.73;37.97;98734.56;5031642;28;20067;-80
2021/07/17 06:45:36;;;;;;;6.57;3.80;;;;;;;27.89;37.85;98743.13;5031736;28;20490;-78
2021/07/17 06:48:01;;;;;;;10.32;3.60;;;;;;;27.78;37.55;98721.69;5031658;28;20455;-79
2021/07/17 06:50:27;;;;;;;5.97;3.50;;;;;;;27.59;37.67;98676.88;5031619;28;20410;-81
2021/07/17 06:52:52;;;;;;;9.20;4.05;;;;;;;28.10;36.97;98747.69;5030444;28;20034;-79
2021/07/17 06:55:18;;;;;;;6.03;3.08;;;;;;;27.56;36.84;98653.88;5031683;28;20026;-80
2021/07/17 06:57:46;;;;;;;5.40;3.25;;;;;;;28.00;36.61;98712.69;5031553;28;20029;-79
2021/07/17 07:00:14;;;;;;;8.18;3.03;;;;;;;28.32;36.24;98751.50;5031764;28;20079;-79
2021/07/17 07:02:40;;;;;;;7.68;3.30;;;;;;;28.21;35.97;98723.78;5031273;28;20075;-80
2021/07/17 07:05:07;;;;;;;6.68;3.00;;;;;;;28.21;35.36;98709.41;5031414;28;20018;-80
2021/07/17 07:07:32;;;;;;;11.10;3.78;;;;;;;28.32;35.24;98722.44;5031390;28;20028;-80
2021/07/17 07:09:58;;;;;;;6.40;3.30;;;;;;;28.52;34.87;98740.06;5031489;28;20021;-79
2021/07/17 07:12:23;;;;;;;8.43;3.45;;;;;;;28.49;34.83;98738.00;5031154;28;20021;-80
2021/07/17 07:14:49;;;;;;;9.85;3.65;;;;;;;28.57;34.77;98737.22;5031448;28;20024;-79
2021/07/17 07:17:14;;;;;;;7.10;3.38;;;;;;;28.57;34.71;98739.13;5030825;28;20025;-79
2021/07/17 07:19:39;;;;;;;9.98;3.35;;;;;;;27.98;34.48;98636.22;5031326;28;20083;-79
2021/07/17 07:22:05;;;;;;;6.57;3.45;;;;;;;28.63;34.23;98732.44;5031480;28;20100;-79
2021/07/17 07:24:31;;;;;;;6.95;3.67;;;;;;;28.73;33.98;98726.69;5031199;28;20017;-72
2021/07/17 07:26:57;;;;;;;7.97;3.60;;;;;;;28.66;34.31;98697.28;5030838;28;20030;-74
2021/07/17 07:29:23;;;;;;;4.05;3.20;;;;;;;28.89;33.63;98725.16;5030806;28;20044;-73
2021/07/17 07:31:50;;;;;;;6.32;3.28;;;;;;;28.85;33.82;98696.22;5031159;28;20049;-74
2021/07/17 07:34:15;;;;;;;5.80;3.20;;;;;;;29.00;33.58;98721.03;5031165;28;20029;-74
2021/07/17 07:36:41;;;;;;;7.40;3.38;;;;;;;29.05;33.39;98720.06;5031101;28;20491;-75
2021/07/17 07:39:06;;;;;;;6.70;3.83;;;;;;;29.09;33.40;98719.13;5030831;28;20029;-73
2021/07/17 07:41:31;;;;;;;8.27;3.97;;;;;;;29.10;33.22;98715.28;5030809;28;20046;-73
2021/07/17 07:43:57;;;;;;;9.32;4.25;;;;;;;28.96;33.43;98682.00;5031081;28;20113;-75
2021/07/17 07:46:22;;;;;;;6.55;3.50;;;;;;;29.22;33.50;98714.63;5030880;28;20104;-73
2021/07/17 07:48:48;;;;;;;7.45;3.65;;;;;;;29.33;33.20;98712.38;5030900;28;20024;-73
2021/07/17 07:51:13;;;;;;;7.55;2.97;;;;;;;28.99;33.29;98648.75;5031009;28;20026;-73
2021/07/17 07:53:39;;;;;;;6.30;3.50;;;;;;;29.46;33.06;98699.75;5030983;28;20018;-74
2021/07/17 07:56:06;;;;;;;7.40;3.38;;;;;;;29.63;32.85;98702.44;5030868;28;20426;-75
2021/07/17 07:58:32;;;;;;;7.85;3.47;;;;;;;29.71;32.66;98702.41;5030891;28;20112;-74
2021/07/17 08:00:58;;;;;;;5.75;3.28;;;;;;;29.85;32.83;98704.97;5030695;28;20104;-74
2021/07/17 08:03:23;;;;;;;7.68;3.58;;;;;;;29.96;32.55;98697.25;5030404;28;20486;-76
2021/07/17 08:05:49;;;;;;;5.40;3.72;;;;;;;29.96;32.46;98692.59;5029326;28;20112;-74
2021/07/17 08:08:14;;;;;;;9.40;3.20;;;;;;;30.02;32.26;98690.53;5030615;28;20026;-75
2021/07/17 08:10:40;;;;;;;9.35;3.70;;;;;;;30.09;32.11;98696.25;5030740;28;20478;-74
2021/07/17 08:13:05;;;;;;;6.25;3.60;;;;;;;29.99;32.15;98663.91;5031111;28;20501;-75
2021/07/17 08:15:31;;;;;;;8.43;3.53;;;;;;;30.25;32.10;98688.31;5030722;28;20026;-74
2021/07/17 08:17:57;;;;;;;7.88;3.50;;;;;;;30.30;32.31;98677.25;5029512;28;20077;-73
2021/07/17 08:20:23;;;;;;;6.13;3.20;;;;;;;29.89;32.11;98607.94;5030782;28;20047;-74
2021/07/17 08:22:49;;;;;;;4.40;3.28;;;;;;;30.00;31.71;98611.88;5030707;28;20099;-73
2021/07/17 08:25:16;;;;;;;7.15;3.33;;;;;;;30.55;31.66;98678.25;5030663;28;20064;-73
2021/07/17 08:27:41;;;;;;;6.38;3.22;;;;;;;30.67;31.37;98684.59;5030780;28;20462;-74
2021/07/17 08:30:09;;;;;;;12.30;3.55;;;;;;;30.77;31.43;98675.22;5033509;28;20147;-74
2021/07/17 08:32:35;;;;;;;6.28;3.40;;;;;;;30.81;31.42;98657.09;5034126;28;20021;-75
2021/07/17 08:35:00;;;;;;;5.97;3.83;;;;;;;30.97;31.50;98671.69;5034053;28;20017;-75
2021/07/17 08:37:26;;;;;;;7.00;3.28;;;;;;;31.06;30.96;98677.06;5033700;28;20021;-76
2021/07/17 08:39:51;;;;;;;11.90;4.05;;;;;;;31.10;30.69;98658.91;5033671;28;20108;-74
2021/07/17 08:42:18;;;;;;;8.23;4.30;;;;;;;31.29;30.77;98669.38;5033481;28;20037;-75
2021/07/17 08:44:48;;;;;;;8.68;3.28;;;;;;;30.63;30.62;98554.81;5033475;28;20020;-72
2021/07/17 08:47:17;;;;;;;9.95;3.22;;;;;;;31.44;30.42;98678.84;5033875;28;20029;-74
2021/07/17 08:49:46;;;;;;;9.20;4.18;;;;;;;31.39;30.30;98654.53;5033806;28;20079;-73
2021/07/17 08:52:12;;;;;;;11.70;3.67;;;;;;;31.58;30.35;98671.16;5033532;28;20026;-75
2021/07/17 08:54:40;;;;;;;8.35;4.05;;;;;;;31.68;30.14;98676.19;5033633;28;20060;-75
2021/07/17 08:57:10;;;;;;;5.35;3.78;;;;;;;31.85;30.04;98670.56;5033595;28;20033;-74
2021/07/17 08:59:37;;;;;;;10.40;4.50;;;;;;;31.97;30.14;98667.06;5033460;28;20021;-74
2021/07/17 09:02:04;;;;;;;8.40;4.25;;;;;;;32.11;29.73;98681.19;5033346;28;20064;-75
2021/07/17 09:04:29;;;;;;;6.82;4.07;;;;;;;32.20;29.57;98664.69;5033223;28;20032;-75
2021/07/17 09:06:55;;;;;;;8.27;3.97;;;;;;;32.13;29.25;98637.13;5033363;28;20021;-75
2021/07/17 09:09:34;;;;;;;7.85;3.58;;;;;;;32.46;29.29;98667.06;5032123;28;20064;-73
2021/07/17 09:11:59;;;;;;;7.38;4.85;;;;;;;32.54;28.94;98660.69;5033360;28;20017;-75
2021/07/17 09:14:41;;;;;;;8.13;4.35;;;;;;;32.70;29.01;98667.06;5033325;28;20029;-72
2021/07/17 09:17:06;;;;;;;8.43;4.35;;;;;;;32.32;28.74;98587.41;5033086;28;20502;-75
2021/07/17 09:19:34;;;;;;;9.60;4.60;;;;;;;32.94;28.26;98665.41;5033211;28;20080;-74
2021/07/17 09:22:02;;;;;;;8.73;3.80;;;;;;;33.07;28.51;98670.50;5033215;28;20441;-73
2021/07/17 09:24:28;;;;;;;7.40;4.00;;;;;;;32.51;28.29;98550.13;5033078;28;20499;-74
2021/07/17 09:26:59;;;;;;;6.10;3.60;;;;;;;33.44;28.70;98664.88;5033065;28;20033;-74
2021/07/17 09:29:38;;;;;;;8.68;4.28;;;;;;;33.64;28.17;98657.59;5032814;28;20026;-73
2021/07/17 09:32:05;;;;;;;8.15;3.83;;;;;;;33.76;27.55;98643.81;5032826;28;20117;-74
2021/07/17 09:34:32;;;;;;;5.25;4.00;;;;;;;33.87;27.47;98649.59;5032569;28;20387;-73
2021/07/17 09:37:07;;;;;;;12.02;4.43;;;;;;;34.03;26.78;98651.16;5032821;28;20486;-73
2021/07/17 09:39:41;;;;;;;5.80;3.70;;;;;;;34.13;27.12;98651.78;5032589;28;20550;-73
2021/07/17 09:42:09;;;;;;;8.57;4.38;;;;;;;34.26;27.06;98645.06;5031890;28;20057;-73
2021/07/17 09:44:35;;;;;;;5.70;3.90;;;;;;;34.48;27.03;98641.69;5032835;28;20084;-74
2021/07/17 09:47:03;;;;;;;7.93;3.65;;;;;;;34.68;26.79;98618.59;5032669;28;20029;-75
2021/07/17 09:49:29;;;;;;;8.93;3.50;;;;;;;35.00;26.33;98644.00;5032700;28;20021;-74
2021/07/17 09:52:06;;;;;;;8.73;4.15;;;;;;;35.19;25.75;98632.22;5032408;28;20083;-73
2021/07/17 09:54:32;;;;;;;6.80;4.03;;;;;;;35.29;26.02;98630.81;5031346;28;20049;-72
2021/07/17 09:57:02;;;;;;;6.70;4.05;;;;;;;35.43;26.14;98631.09;5032392;28;20040;-72
2021/07/17 09:59:27;;;;;;;8.05;3.88;;;;;;;35.53;25.94;98633.25;5032512;28;20049;-74
2021/07/17 10:01:52;;;;;;;11.25;4.10;;;;;;;35.30;25.43;98575.56;5032291;28;20065;-74
2021/07/17 10:04:18;;;;;;;7.57;3.47;;;;;;;33.88;25.12;98331.56;5032530;28;20087;-74
2021/07/17 10:06:46;;;;;;;7.13;3.25;;;;;;;35.97;24.99;98621.84;5032323;28;20036;-73
2021/07/17 10:09:11;;;;;;;11.82;3.80;;;;;;;36.00;24.54;98631.31;5032357;28;20032;-73
2021/07/17 10:11:37;;;;;;;5.82;3.40;;;;;;;36.18;24.25;98626.88;5032252;28;20025;-73
2021/07/17 10:14:19;;;;;;;7.18;3.47;;;;;;;36.33;23.98;98623.19;5032113;28;20402;-74
2021/07/17 10:16:48;;;;;;;12.00;3.70;;;;;;;36.44;23.65;98626.91;5032387;28;20482;-74
2021/07/17 10:19:15;;;;;;;8.00;3.38;;;;;;;36.44;23.39;98628.88;5032223;28;20497;-73
2021/07/17 10:21:41;;;;;;;5.15;3.28;;;;;;;36.47;23.60;98626.16;5032091;28;20025;-75
2021/07/17 10:24:06;;;;;;;7.72;3.53;;;;;;;36.63;23.33;98622.44;5032152;28;20033;-80
2021/07/17 10:26:32;;;;;;;5.60;3.08;;;;;;;36.70;23.50;98614.28;5032075;28;20029;-77
2021/07/17 10:29:04;;;;;;;4.68;3.22;;;;;;;36.66;23.27;98569.44;5032125;28;20037;-79
2021/07/17 10:31:29;;;;;;;11.20;3.90;;;;;;;37.10;23.20;98613.59;5031964;28;20028;-77
2021/07/17 10:33:55;;;;;;;15.93;4.05;;;;;;;36.97;23.20;98599.28;5032041;28;20029;-79
2021/07/17 10:36:21;;;;;;;6.93;3.45;;;;;;;37.03;23.42;98616.25;5031958;28;20030;-78
2021/07/17 10:38:51;;;;;;;7.00;3.28;;;;;;;37.30;23.40;98605.97;5031921;28;20033;-79
2021/07/17 10:41:19;;;;;;;15.20;4.90;;;;;;;37.49;23.37;98597.50;5031551;28;20076;-79
2021/07/17 10:43:54;;;;;;;9.13;4.82;;;;;;;37.70;23.02;98585.91;5031659;28;20033;-79
2021/07/17 10:46:30;;;;;;;5.50;3.63;;;;;;;37.84;23.36;98594.25;5031882;28;20030;-79
2021/07/17 10:48:58;;;;;;;7.10;4.15;;;;;;;37.89;22.70;98563.59;5031651;28;20067;-79
2021/07/17 10:51:23;;;;;;;9.45;4.25;;;;;;;38.04;22.39;98601.13;5031437;28;20029;-79
2021/07/17 10:53:50;;;;;;;6.10;3.97;;;;;;;37.95;22.94;98586.09;5030987;28;20025;-77
2021/07/17 10:56:36;;;;;;;5.50;4.00;;;;;;;38.10;23.19;98582.25;5031839;28;20441;-79
2021/07/17 10:59:12;;;;;;;7.28;3.15;;;;;;;38.23;22.72;98577.25;5031457;28;20410;-80
2021/07/17 11:01:56;;;;;;;9.35;4.20;;;;;;;38.52;23.15;98567.13;5031612;28;20036;-79
2021/07/17 11:04:44;;;;;;;6.60;3.80;;;;;;;38.78;22.27;98569.66;5031512;28;20560;-79
2021/07/17 11:07:31;;;;;;;7.30;3.00;;;;;;;38.90;21.96;98579.53;5031452;28;20032;-79
2021/07/17 11:10:05;;;;;;;10.60;3.45;;;;;;;38.85;22.37;98568.88;5030113;28;20048;-78
2021/07/17 11:12:33;;;;;;;7.72;3.50;;;;;;;38.93;21.59;98573.22;5031655;28;20033;-79
2021/07/17 11:15:07;;;;;;;7.78;3.17;;;;;;;38.89;21.92;98581.50;5031340;28;20403;-79
2021/07/17 11:17:49;;;;;;;6.88;3.08;;;;;;;39.02;22.13;98574.44;5031574;28;20171;-79
2021/07/17 11:20:25;;;;;;;7.10;3.60;;;;;;;39.06;21.79;98572.50;5031292;28;20057;-78
2021/07/17 11:23:12;;;;;;;4.68;2.75;;;;;;;39.05;21.37;98551.59;5031486;28;20064;-79
2021/07/17 11:25:38;;;;;;;7.45;2.50;;;;;;;39.19;21.55;98566.59;5031249;28;20029;-74
2021/07/17 11:28:04;;;;;;;4.10;2.85;;;;;;;39.34;21.26;98554.38;5031033;28;20035;-74
2021/07/17 11:30:34;;;;;;;7.72;2.92;;;;;;;39.55;20.58;98556.41;5031040;28;20100;-74